Nome, AK

4:34 PM AKDT on September 24, 2016 (GMT -0800)
Nome | | Change Station

Elev 36 ft 64.51 °N, 165.45 °W | Updated 28 minutes ago

Scattered Clouds
Scattered Clouds
39 °F
Feels Like 34 °F
N
7
Wind Variable Wind from WSW

Today
High -- | Low -- °F
--% Chance of Precip.
Yesterday
High -- | Low -- °F
Precip. -- in
Pressure 29.76 in
Visibility 10.0 miles
Clouds Few 2400 ft
Scattered Clouds 2900 ft
Scattered Clouds 4900 ft
Windchill 34 °F
Dew Point 35 °F
Humidity 86%
Rainfall 0.08 in
Snow Depth Not available.
8:52 AM 8:52 PM
Waning Crescent, 33% visible
SPECI PAOM 250006Z 24006KT 10SM FEW024 SCT029 SCT049 04/02 A2976 RMK AO2 RAE2358 P0000 T00390017
Pressure 29.76 in
Visibility 10.0 miles
Clouds Few 2400 ft
Scattered Clouds 2900 ft
Scattered Clouds 4900 ft
Windchill 34 °F
Dew Point 35 °F
Humidity 86%
Rainfall 0.08 in
Snow Depth Not available.
8:52 AM 8:52 PM
Waning Crescent, 33% visible
SPECI PAOM 250006Z 24006KT 10SM FEW024 SCT029 SCT049 04/02 A2976 RMK AO2 RAE2358 P0000 T00390017

10-Day Weather Forecast

Almanac

Astronomy

Sep. 24, 2016 Rise Set
Actual Time
Civil Twilight
Nautical Twilight
Astronomical Twilight
Moon
Length of Visible Light
Length of Day
Tomorrow will be .
, % of the Moon is Illuminated

Today's Extremes

State Highs State Lows

Community

WunderPhotos

Upload Photos

1,941,501 photos uploaded!

WunderBlog® & News

Nearby

Air Quality

  Air Quality AQ Index Pollutant
Not available.

Snow Depth

Station Depth Elevation

Earthquake Activity

City Distance Mag. Time & Date
Minimum magnitude displayed is 2.5.

Coastal Water Temperatures

Place Temperature

Stations

Nearby Weather Stations

Station Location Temp. Windchill Dew Point Humidity Wind Precip. Elev Updated Type
                   

Watches & Warnings

There are currently no watches in effect.